CheckWX is a tool to help pilots better visualize weather data.  It is not intended as a substitute for an official pre-flight weather briefing.

07:16:05 UTC

PAMC TAF
Mc Grath Airport
Mcgrath, Alaska, USA
PAMC 190520Z 1906/2006 32005KT P6SM FEW070 FM200000 00000KT P6SM BKN250

Jan-19@
06:00 UTC

Jan-19 @ 06:00 UTC

Jan-20@
00:00 UTC

Jan-20 @ 00:00 UTC

PAMC 190520Z 1906/2006 32005KT P6SM FEW070
Wind
  • 320° at 5 KTS
Cloud Levels
  • Few at 7,000' AGL

Jan-20@
00:00 UTC

Jan-20 @ 00:00 UTC

Jan-20@
06:00 UTC

Jan-20 @ 06:00 UTC

FM200000 00000KT P6SM BKN250

From

From Standard forecast or significant change

Cloud Levels
  • Broken at 25,000' AGL